Strona główna
METAR-TAF:

METAR-TAF

Lotnisko :

Koksijde, Belgia

Szerokość geograficzna: 51-05N, Długość geograficzna: 002-39E, wysokość: 4 m

Aktualna obserwacja pogody

Raport powstał 39 minut temu, godzina 11:25 UTC
Wiatr 9 kt od południe
Temperatura 8°C
Wilgotność 93%
Ciśnienie 1004 hPa
Widzialność 10 km lub więcej
Mało chmury na wysokości 1800 ft
Przerywane chmury na wysokości 6000 ft
słaby deszcz

METAR: EBFN 161125Z 19009KT 9999 -RA FEW018 BKN060 08/07 Q1004 BLU BLU TEMPO WHT

czas: 13:04 (12:04 UTC)

Prognoza

Raport powstał 3 godziny i 23 minut temu, godzina 08:41 UTC
Prognoza ważna od 16 godzina 10 UTC do 16 godzina 19 UTC
Wiatr 11 kt od południe
Widzialność 10 km lub więcej
Przerywane chmury na wysokości 12000 ft
Stopniowe zmiany
od 16 godzina 16 UTC do 16 godzina 18 UTC
Wiatr 5 kt od południowo-południowy wschód
Widzialność: 5000 m
Zachmurzenie całkowite na wysokości 4000 ft
słaby deszcz

TAF: EBFN 160841Z 1610/1619 18011KT 9999 BKN120 BECMG 1616/1618 15005KT 5000 -RA OVC040

Obserwacja i prognoza pogody dla ponad 4000 lotnisk (raport METAR i TAF).

Dostępne stacje oznaczono żółtymi i czerwonymi punktami na mapie.

Najedź kursorem aby zobaczyć nazwę stacji.

Kliknij aby zobaczyć obserwacje i prognozy pogody.

Aby zmienić mapę: kliknij na zielony przycisk z czarnym krzyżykiem, aby powiększyć; na zielony przycisk z myślnikiem, aby pomniejszyć; na zielone strzałki, aby przejść do map sąsiednich.


METAR-TAF: